FAKM

Kimberley Airport

Airport
ICAO code
FAKM
IATA Code
KIM
Summary
ICAO Region
AFI
ICAO Territory
Location

, Northern Cape

Serving
Kimberley
Elevation
3950 ft
Coordinates
28° 48' 10" S , 24° 45' 55" E
Metar
FAKM 041112Z 03007KT 9999 TS SCT050 FEW060CB SCT090 19/16 Q1011 RERA

Runways

Designator Length Width Surface Rops
10/28 2439 45 ASP No/No
2/20 3000 46 ASP No/No

Airport map

Aerial View

SKYbrary Partners:

Safety knowledge contributed by: